Omodos — 3FQX3 — position and weather

sailwx.info

Track history (hours):
 
Tides and Currents Weather Stations Pressure Air Temp Water Temp Dewpoint Dewpoint Depression Visibility Wind Speed Wind Dir Waves Ship Positions

Omodos

Last reported at 2017-Dec-08 23:12 UTC. Time now 2017-Dec-13 16:59 UTC.
Position N 32°20' W 117°07'.

Length 183 m; draft 11 m.

Type: Tanker. MMSI: 370153000.

Date/timePositionNaut miles runAvg speedWind from/ knotsBaromVisibWave heightAir tempDewpointWater temp
2017-Dec-08 23:12N 32°20' W 117°07'0 0.2
2017-Dec-08 22:54N 32°20' W 117°07'0 0.0
2017-Dec-06 22:30N 32°20' W 117°07'0 0.0
2017-Dec-06 22:00N 32°20' W 117°07'0 0.1
2017-Dec-06 21:06N 32°20' W 117°07'0 0.0
2017-Dec-06 21:00N 32°20' W 117°07'  
2017-Dec-04 05:56N 32°21' W 117°43'2512.5
2017-Dec-04 03:56N 32°23' W 118°13'512.8
2017-Dec-04 03:30N 32°25' W 118°19'1212.9
2017-Dec-04 02:34N 32°29' W 118°32'1913.0
2017-Dec-04 01:07N 32°34' W 118°54'213.0
2017-Dec-04 01:00N 32°35' W 118°55'612.8
2017-Dec-04 00:30N 32°37' W 119°03'713.0
2017-Dec-03 23:59N 32°39' W 119°10'1013.3
2017-Dec-03 23:15N 32°45' W 119°19'313.4
2017-Dec-03 23:00N 32°47' W 119°22'913.0
2017-Dec-03 22:17N 32°53' W 119°30'413.3
2017-Dec-03 22:00N 32°56' W 119°33'713.1
2017-Dec-03 21:30N 33°00' W 119°39'613.0
2017-Dec-03 21:00N 33°04' W 119°45'612.9
2017-Dec-03 20:30N 33°09' W 119°51'612.8
2017-Dec-03 20:00N 33°13' W 119°57'612.6
2017-Dec-03 19:30N 33°17' W 120°02'612.7
2017-Dec-03 19:00N 33°21' W 120°08'612.4
2017-Dec-03 18:30N 33°26' W 120°13'713.2
2017-Dec-03 18:00N 33°30' W 120°19'612.7
2017-Dec-03 17:30N 33°34' W 120°25'612.6
2017-Dec-03 17:00N 33°38' W 120°30'612.5
2017-Dec-03 16:30N 33°43' W 120°36'612.3
2017-Dec-03 16:00N 33°47' W 120°42'612.3
2017-Dec-03 15:30N 33°51' W 120°47'612.2
2017-Dec-03 15:00N 33°55' W 120°53'712.5
2017-Dec-03 14:26N 33°60' W 120°59'512.6
2017-Dec-03 14:00N 34°04' W 121°02'612.7
2017-Dec-03 13:30N 34°10' W 121°06'612.8
2017-Dec-03 13:00N 34°15' W 121°10'612.6
2017-Dec-03 12:30N 34°21' W 121°14'712.8
2017-Dec-03 11:58N 34°27' W 121°18'612.6
2017-Dec-03 11:30N 34°32' W 121°22'612.6
2017-Dec-03 11:00N 34°37' W 121°25'612.5
2017-Dec-03 10:30N 34°43' W 121°29'612.6
2017-Dec-03 10:00N 34°48' W 121°33'612.8
2017-Dec-03 09:30N 34°53' W 121°37'612.8
2017-Dec-03 09:00N 34°59' W 121°41'612.5
2017-Dec-03 08:30N 35°04' W 121°45'612.5
2017-Dec-03 08:00N 35°10' W 121°49'612.5
2017-Dec-03 07:30N 35°15' W 121°53'612.5
2017-Dec-03 07:00N 35°21' W 121°56'612.7
2017-Dec-03 06:30N 35°26' W 122°00'612.8
2017-Dec-03 06:00N 35°32' W 122°05'612.8
2017-Dec-03 05:30N 35°37' W 122°08'612.8
2017-Dec-03 05:00N 35°43' W 122°12'612.8
2017-Dec-03 04:30N 35°48' W 122°16'713.2
2017-Dec-03 04:00N 35°54' W 122°21'613.0
2017-Dec-03 03:30N 35°60' W 122°24'612.8
2017-Dec-03 03:00N 36°05' W 122°29'713.2
2017-Dec-03 02:31N 36°11' W 122°33'713.4
2017-Dec-03 02:00N 36°16' W 122°37'713.4
2017-Dec-03 01:30N 36°22' W 122°41'713.5
2017-Dec-03 01:00N 36°28' W 122°45'713.0
2017-Dec-03 00:30N 36°34' W 122°49'713.0
2017-Dec-03 00:00N 36°39' W 122°53'713.0
2017-Dec-02 23:30N 36°45' W 122°57'713.1
2017-Dec-02 23:01N 36°51' W 123°02'612.9
2017-Dec-02 22:30N 36°56' W 123°06'612.9
2017-Dec-02 22:00N 37°02' W 123°10'612.8
2017-Dec-02 21:30N 37°07' W 123°14'612.8
2017-Dec-02 21:00N 37°13' W 123°18'612.8
2017-Dec-02 20:30N 37°18' W 123°22'612.7
2017-Dec-02 20:00N 37°24' W 123°26'612.7
2017-Dec-02 19:30N 37°29' W 123°30'712.8
2017-Dec-02 18:58N 37°35' W 123°34'613.0
2017-Dec-02 18:30N 37°41' W 123°37'612.8
2017-Dec-02 18:00N 37°47' W 123°39'612.5
2017-Dec-02 17:30N 37°53' W 123°42'612.2
2017-Dec-02 17:00N 37°59' W 123°44'612.3
2017-Dec-02 16:30N 38°04' W 123°47'612.1
2017-Dec-02 15:59N 38°10' W 123°50'612.4
2017-Dec-02 15:30N 38°16' W 123°52'612.7
2017-Dec-02 15:00N 38°22' W 123°55'612.7
2017-Dec-02 14:30N 38°28' W 123°58'612.5
2017-Dec-02 14:00N 38°34' W 124°00'1012.6
2017-Dec-02 13:14N 38°43' W 124°04'413.0
2017-Dec-02 12:56N 38°47' W 124°06'1013.1
2017-Dec-02 12:11N 38°56' W 124°10'33612.4
2017-Dec-01 09:04N 44°30' W 125°07'111.9
2017-Dec-01 09:00N 44°30' W 125°07'612.0
2017-Dec-01 08:29N 44°37' W 125°07'712.0
2017-Dec-01 07:52N 44°44' W 125°08'511.8
2017-Dec-01 07:27N 44°49' W 125°08'4011.6
2017-Dec-01 04:01N 45°29' W 125°11'111.5
2017-Dec-01 03:57N 45°29' W 125°11'511.6
2017-Dec-01 03:30N 45°34' W 125°12'611.8
2017-Dec-01 03:00N 45°40' W 125°12'611.9
2017-Dec-01 02:30N 45°46' W 125°13'1012.1
2017-Dec-01 01:42N 45°56' W 125°13'212.0
2017-Dec-01 01:30N 45°58' W 125°14'1012.2
2017-Dec-01 00:43N 46°08' W 125°14'312.3
2017-Dec-01 00:27N 46°11' W 125°14'512.3
2017-Dec-01 00:00N 46°17' W 125°14'612.0
2017-Nov-30 23:30N 46°23' W 125°14'612.3
2017-Nov-30 23:00N 46°29' W 125°16'612.5
2017-Nov-30 22:30N 46°35' W 125°17'612.4
2017-Nov-30 22:00N 46°41' W 125°17'612.5
2017-Nov-30 21:30N 46°47' W 125°18'612.7
2017-Nov-30 21:00N 46°54' W 125°18'912.8
2017-Nov-30 20:18N 47°03' W 125°19'412.9
2017-Nov-30 20:00N 47°07' W 125°19'713.0
2017-Nov-30 19:30N 47°13' W 125°20'713.2
2017-Nov-30 18:59N 47°20' W 125°20'913.1
2017-Nov-30 18:16N 47°29' W 125°21'312.8
2017-Nov-30 18:00N 47°33' W 125°21'3810.9
2017-Nov-30 14:29N 48°11' W 125°15'5 9.9
2017-Nov-30 13:59N 48°16' W 125°13'5 9.4
2017-Nov-30 13:30N 48°20' W 125°10'5 9.1
2017-Nov-30 13:00N 48°24' W 125°08'5 9.4
2017-Nov-30 12:30N 48°28' W 125°04'4 8.4
2017-Nov-30 12:01N 48°31' W 124°60'510.3
2017-Nov-30 11:30N 48°31' W 124°52'510.6
2017-Nov-30 11:00N 48°30' W 124°44'5 9.8
2017-Nov-30 10:30N 48°29' W 124°37'611.1
2017-Nov-30 10:00N 48°27' W 124°29'611.6
2017-Nov-30 09:31N 48°24' W 124°21'611.3
2017-Nov-30 09:00N 48°22' W 124°13'611.9
2017-Nov-30 08:30N 48°20' W 124°05'612.0
2017-Nov-30 08:00N 48°18' W 123°56'611.2
2017-Nov-30 07:29N 48°17' W 123°48'611.2
2017-Nov-30 06:59N 48°16' W 123°39'510.9
2017-Nov-30 06:30N 48°16' W 123°32'510.9
2017-Nov-30 06:00N 48°20' W 123°27'5 9.4
2017-Nov-30 05:31N 48°23' W 123°22'5 9.3
2017-Nov-30 05:01N 48°24' W 123°15'5 9.6
2017-Nov-30 04:31N 48°29' W 123°13'612.1
2017-Nov-30 04:00N 48°35' W 123°14'612.5
2017-Nov-30 03:30N 48°41' W 123°15'612.3
2017-Nov-30 03:00N 48°44' W 123°08'612.2
2017-Nov-30 02:30N 48°48' W 122°60'511.0
2017-Nov-30 02:01N 48°52' W 123°05'713.8
2017-Nov-30 01:30N 48°57' W 123°13'613.1
2017-Nov-30 01:00N 49°01' W 123°20'612.3
2017-Nov-30 00:30N 49°07' W 123°23'713.5
2017-Nov-30 00:00N 49°14' W 123°21'612.5
2017-Nov-29 23:30N 49°19' W 123°16'2 4.3
2017-Nov-29 23:00N 49°19' W 123°13'1 2.9
2017-Nov-29 22:30N 49°19' W 123°10'4 7.7
2017-Nov-29 22:00N 49°18' W 123°05'4 8.3
2017-Nov-29 21:30N 49°18' W 122°58'3 5.9
2017-Nov-29 21:00N 49°17' W 122°54'0 0.0
2017-Nov-29 20:30N 49°17' W 122°54'0 0.0
2017-Nov-29 18:23N 49°17' W 122°54'0 0.1
2017-Nov-29 17:53N 49°17' W 122°54'0 0.0
2017-Nov-29 17:29N 49°17' W 122°54'0 0.1
2017-Nov-29 16:53N 49°17' W 122°54'0 0.1
2017-Nov-29 16:29N 49°17' W 122°54'0 0.0
2017-Nov-29 15:53N 49°17' W 122°54'0 0.0
2017-Nov-29 15:29N 49°17' W 122°54'0 0.0
2017-Nov-29 14:59N 49°17' W 122°54'0 0.0
2017-Nov-29 14:29N 49°17' W 122°54'0 0.0
2017-Nov-29 13:59N 49°17' W 122°54'0 0.0
2017-Nov-29 13:29N 49°17' W 122°54'0 0.0
2017-Nov-29 12:59N 49°17' W 122°54'0 0.1
2017-Nov-29 12:29N 49°17' W 122°54'0 0.1
2017-Nov-29 11:59N 49°17' W 122°54'0 0.0
2017-Nov-29 11:29N 49°17' W 122°54'0 0.0
2017-Nov-29 10:17N 49°17' W 122°54'0 0.0
2017-Nov-29 09:53N 49°17' W 122°54'0 0.0
2017-Nov-29 09:29N 49°17' W 122°54'0 0.0
2017-Nov-29 08:47N 49°17' W 122°54'0 0.0
2017-Nov-29 07:47N 49°17' W 122°54'0 0.0
2017-Nov-29 07:29N 49°17' W 122°54'0 0.1
2017-Nov-29 06:47N 49°17' W 122°54'0 0.1
2017-Nov-29 06:29N 49°17' W 122°54'0 0.0
2017-Nov-29 05:59N 49°17' W 122°54'0 0.0
2017-Nov-29 04:23N 49°17' W 122°54'0 0.1
2017-Nov-29 03:59N 49°17' W 122°54'0 0.1
2017-Nov-29 03:23N 49°17' W 122°54'0 0.0
2017-Nov-29 02:59N 49°17' W 122°54'0 0.1
2017-Nov-29 02:29N 49°17' W 122°54'0 0.1
2017-Nov-29 01:47N 49°17' W 122°54'0 0.1
2017-Nov-29 01:29N 49°17' W 122°54'0 0.0
2017-Nov-29 00:59N 49°17' W 122°54'0 0.0
2017-Nov-29 00:29N 49°17' W 122°54'0 0.0
2017-Nov-28 23:59N 49°17' W 122°54'0 0.1
2017-Nov-28 23:29N 49°17' W 122°54'  
Track history (hours):
 
Tides and Currents Weather Stations Pressure Air Temp Water Temp Dewpoint Dewpoint Depression Visibility Wind Speed Wind Dir Waves Ship Positions

Omodos

Last reported at 2017-Dec-08 23:12 UTC. Time now 2017-Dec-13 16:59 UTC.
Position N 32°20' W 117°07'.

Length 183 m; draft 11 m.

Type: Tanker. MMSI: 370153000.

Date/timePositionNaut miles runAvg speedWind from/ knotsBaromVisibWave heightAir tempDewpointWater temp
2017-Dec-08 23:12N 32°20' W 117°07'0 0.2
2017-Dec-08 22:54N 32°20' W 117°07'0 0.0
2017-Dec-06 22:30N 32°20' W 117°07'0 0.0
2017-Dec-06 22:00N 32°20' W 117°07'0 0.1
2017-Dec-06 21:06N 32°20' W 117°07'0 0.0
2017-Dec-06 21:00N 32°20' W 117°07'  
2017-Dec-04 05:56N 32°21' W 117°43'2512.5
2017-Dec-04 03:56N 32°23' W 118°13'512.8
2017-Dec-04 03:30N 32°25' W 118°19'1212.9
2017-Dec-04 02:34N 32°29' W 118°32'1913.0
2017-Dec-04 01:07N 32°34' W 118°54'213.0
2017-Dec-04 01:00N 32°35' W 118°55'612.8
2017-Dec-04 00:30N 32°37' W 119°03'713.0
2017-Dec-03 23:59N 32°39' W 119°10'1013.3
2017-Dec-03 23:15N 32°45' W 119°19'313.4
2017-Dec-03 23:00N 32°47' W 119°22'913.0
2017-Dec-03 22:17N 32°53' W 119°30'413.3
2017-Dec-03 22:00N 32°56' W 119°33'713.1
2017-Dec-03 21:30N 33°00' W 119°39'613.0
2017-Dec-03 21:00N 33°04' W 119°45'612.9
2017-Dec-03 20:30N 33°09' W 119°51'612.8
2017-Dec-03 20:00N 33°13' W 119°57'612.6
2017-Dec-03 19:30N 33°17' W 120°02'612.7
2017-Dec-03 19:00N 33°21' W 120°08'612.4
2017-Dec-03 18:30N 33°26' W 120°13'713.2
2017-Dec-03 18:00N 33°30' W 120°19'612.7
2017-Dec-03 17:30N 33°34' W 120°25'612.6
2017-Dec-03 17:00N 33°38' W 120°30'612.5
2017-Dec-03 16:30N 33°43' W 120°36'612.3
2017-Dec-03 16:00N 33°47' W 120°42'612.3
2017-Dec-03 15:30N 33°51' W 120°47'612.2
2017-Dec-03 15:00N 33°55' W 120°53'712.5
2017-Dec-03 14:26N 33°60' W 120°59'512.6
2017-Dec-03 14:00N 34°04' W 121°02'612.7
2017-Dec-03 13:30N 34°10' W 121°06'612.8
2017-Dec-03 13:00N 34°15' W 121°10'612.6
2017-Dec-03 12:30N 34°21' W 121°14'712.8
2017-Dec-03 11:58N 34°27' W 121°18'612.6
2017-Dec-03 11:30N 34°32' W 121°22'612.6
2017-Dec-03 11:00N 34°37' W 121°25'612.5
2017-Dec-03 10:30N 34°43' W 121°29'612.6
2017-Dec-03 10:00N 34°48' W 121°33'612.8
2017-Dec-03 09:30N 34°53' W 121°37'612.8
2017-Dec-03 09:00N 34°59' W 121°41'612.5
2017-Dec-03 08:30N 35°04' W 121°45'612.5
2017-Dec-03 08:00N 35°10' W 121°49'612.5
2017-Dec-03 07:30N 35°15' W 121°53'612.5
2017-Dec-03 07:00N 35°21' W 121°56'612.7
2017-Dec-03 06:30N 35°26' W 122°00'612.8
2017-Dec-03 06:00N 35°32' W 122°05'612.8
2017-Dec-03 05:30N 35°37' W 122°08'612.8
2017-Dec-03 05:00N 35°43' W 122°12'612.8
2017-Dec-03 04:30N 35°48' W 122°16'713.2
2017-Dec-03 04:00N 35°54' W 122°21'613.0
2017-Dec-03 03:30N 35°60' W 122°24'612.8
2017-Dec-03 03:00N 36°05' W 122°29'713.2
2017-Dec-03 02:31N 36°11' W 122°33'713.4
2017-Dec-03 02:00N 36°16' W 122°37'713.4
2017-Dec-03 01:30N 36°22' W 122°41'713.5
2017-Dec-03 01:00N 36°28' W 122°45'713.0
2017-Dec-03 00:30N 36°34' W 122°49'713.0
2017-Dec-03 00:00N 36°39' W 122°53'713.0
2017-Dec-02 23:30N 36°45' W 122°57'713.1
2017-Dec-02 23:01N 36°51' W 123°02'612.9
2017-Dec-02 22:30N 36°56' W 123°06'612.9
2017-Dec-02 22:00N 37°02' W 123°10'612.8
2017-Dec-02 21:30N 37°07' W 123°14'612.8
2017-Dec-02 21:00N 37°13' W 123°18'612.8
2017-Dec-02 20:30N 37°18' W 123°22'612.7
2017-Dec-02 20:00N 37°24' W 123°26'612.7
2017-Dec-02 19:30N 37°29' W 123°30'712.8
2017-Dec-02 18:58N 37°35' W 123°34'613.0
2017-Dec-02 18:30N 37°41' W 123°37'612.8
2017-Dec-02 18:00N 37°47' W 123°39'612.5
2017-Dec-02 17:30N 37°53' W 123°42'612.2
2017-Dec-02 17:00N 37°59' W 123°44'612.3
2017-Dec-02 16:30N 38°04' W 123°47'612.1
2017-Dec-02 15:59N 38°10' W 123°50'612.4
2017-Dec-02 15:30N 38°16' W 123°52'612.7
2017-Dec-02 15:00N 38°22' W 123°55'612.7
2017-Dec-02 14:30N 38°28' W 123°58'612.5
2017-Dec-02 14:00N 38°34' W 124°00'1012.6
2017-Dec-02 13:14N 38°43' W 124°04'413.0
2017-Dec-02 12:56N 38°47' W 124°06'1013.1
2017-Dec-02 12:11N 38°56' W 124°10'33612.4
2017-Dec-01 09:04N 44°30' W 125°07'111.9
2017-Dec-01 09:00N 44°30' W 125°07'612.0
2017-Dec-01 08:29N 44°37' W 125°07'712.0
2017-Dec-01 07:52N 44°44' W 125°08'511.8
2017-Dec-01 07:27N 44°49' W 125°08'4011.6
2017-Dec-01 04:01N 45°29' W 125°11'111.5
2017-Dec-01 03:57N 45°29' W 125°11'511.6
2017-Dec-01 03:30N 45°34' W 125°12'611.8
2017-Dec-01 03:00N 45°40' W 125°12'611.9
2017-Dec-01 02:30N 45°46' W 125°13'1012.1
2017-Dec-01 01:42N 45°56' W 125°13'212.0
2017-Dec-01 01:30N 45°58' W 125°14'1012.2
2017-Dec-01 00:43N 46°08' W 125°14'312.3
2017-Dec-01 00:27N 46°11' W 125°14'512.3
2017-Dec-01 00:00N 46°17' W 125°14'612.0
2017-Nov-30 23:30N 46°23' W 125°14'612.3
2017-Nov-30 23:00N 46°29' W 125°16'612.5
2017-Nov-30 22:30N 46°35' W 125°17'612.4
2017-Nov-30 22:00N 46°41' W 125°17'612.5
2017-Nov-30 21:30N 46°47' W 125°18'612.7
2017-Nov-30 21:00N 46°54' W 125°18'912.8
2017-Nov-30 20:18N 47°03' W 125°19'412.9
2017-Nov-30 20:00N 47°07' W 125°19'713.0
2017-Nov-30 19:30N 47°13' W 125°20'713.2
2017-Nov-30 18:59N 47°20' W 125°20'913.1
2017-Nov-30 18:16N 47°29' W 125°21'312.8
2017-Nov-30 18:00N 47°33' W 125°21'3810.9
2017-Nov-30 14:29N 48°11' W 125°15'5 9.9
2017-Nov-30 13:59N 48°16' W 125°13'5 9.4
2017-Nov-30 13:30N 48°20' W 125°10'5 9.1
2017-Nov-30 13:00N 48°24' W 125°08'5 9.4
2017-Nov-30 12:30N 48°28' W 125°04'4 8.4
2017-Nov-30 12:01N 48°31' W 124°60'510.3
2017-Nov-30 11:30N 48°31' W 124°52'510.6
2017-Nov-30 11:00N 48°30' W 124°44'5 9.8
2017-Nov-30 10:30N 48°29' W 124°37'611.1
2017-Nov-30 10:00N 48°27' W 124°29'611.6
2017-Nov-30 09:31N 48°24' W 124°21'611.3
2017-Nov-30 09:00N 48°22' W 124°13'611.9
2017-Nov-30 08:30N 48°20' W 124°05'612.0
2017-Nov-30 08:00N 48°18' W 123°56'611.2
2017-Nov-30 07:29N 48°17' W 123°48'611.2
2017-Nov-30 06:59N 48°16' W 123°39'510.9
2017-Nov-30 06:30N 48°16' W 123°32'510.9
2017-Nov-30 06:00N 48°20' W 123°27'5 9.4
2017-Nov-30 05:31N 48°23' W 123°22'5 9.3
2017-Nov-30 05:01N 48°24' W 123°15'5 9.6
2017-Nov-30 04:31N 48°29' W 123°13'612.1
2017-Nov-30 04:00N 48°35' W 123°14'612.5
2017-Nov-30 03:30N 48°41' W 123°15'612.3
2017-Nov-30 03:00N 48°44' W 123°08'612.2
2017-Nov-30 02:30N 48°48' W 122°60'511.0
2017-Nov-30 02:01N 48°52' W 123°05'713.8
2017-Nov-30 01:30N 48°57' W 123°13'613.1
2017-Nov-30 01:00N 49°01' W 123°20'612.3
2017-Nov-30 00:30N 49°07' W 123°23'713.5
2017-Nov-30 00:00N 49°14' W 123°21'612.5
2017-Nov-29 23:30N 49°19' W 123°16'2 4.3
2017-Nov-29 23:00N 49°19' W 123°13'1 2.9
2017-Nov-29 22:30N 49°19' W 123°10'4 7.7
2017-Nov-29 22:00N 49°18' W 123°05'4 8.3
2017-Nov-29 21:30N 49°18' W 122°58'3 5.9
2017-Nov-29 21:00N 49°17' W 122°54'0 0.0
2017-Nov-29 20:30N 49°17' W 122°54'0 0.0
2017-Nov-29 18:23N 49°17' W 122°54'0 0.1
2017-Nov-29 17:53N 49°17' W 122°54'0 0.0
2017-Nov-29 17:29N 49°17' W 122°54'0 0.1
2017-Nov-29 16:53N 49°17' W 122°54'0 0.1
2017-Nov-29 16:29N 49°17' W 122°54'0 0.0
2017-Nov-29 15:53N 49°17' W 122°54'0 0.0
2017-Nov-29 15:29N 49°17' W 122°54'0 0.0
2017-Nov-29 14:59N 49°17' W 122°54'0 0.0
2017-Nov-29 14:29N 49°17' W 122°54'0 0.0
2017-Nov-29 13:59N 49°17' W 122°54'0 0.0
2017-Nov-29 13:29N 49°17' W 122°54'0 0.0
2017-Nov-29 12:59N 49°17' W 122°54'0 0.1
2017-Nov-29 12:29N 49°17' W 122°54'0 0.1
2017-Nov-29 11:59N 49°17' W 122°54'0 0.0
2017-Nov-29 11:29N 49°17' W 122°54'0 0.0
2017-Nov-29 10:17N 49°17' W 122°54'0 0.0
2017-Nov-29 09:53N 49°17' W 122°54'0 0.0
2017-Nov-29 09:29N 49°17' W 122°54'0 0.0
2017-Nov-29 08:47N 49°17' W 122°54'0 0.0
2017-Nov-29 07:47N 49°17' W 122°54'0 0.0
2017-Nov-29 07:29N 49°17' W 122°54'0 0.1
2017-Nov-29 06:47N 49°17' W 122°54'0 0.1
2017-Nov-29 06:29N 49°17' W 122°54'0 0.0
2017-Nov-29 05:59N 49°17' W 122°54'0 0.0
2017-Nov-29 04:23N 49°17' W 122°54'0 0.1
2017-Nov-29 03:59N 49°17' W 122°54'0 0.1
2017-Nov-29 03:23N 49°17' W 122°54'0 0.0
2017-Nov-29 02:59N 49°17' W 122°54'0 0.1
2017-Nov-29 02:29N 49°17' W 122°54'0 0.1
2017-Nov-29 01:47N 49°17' W 122°54'0 0.1
2017-Nov-29 01:29N 49°17' W 122°54'0 0.0
2017-Nov-29 00:59N 49°17' W 122°54'0 0.0
2017-Nov-29 00:29N 49°17' W 122°54'0 0.0
2017-Nov-28 23:59N 49°17' W 122°54'0 0.1
2017-Nov-28 23:29N 49°17' W 122°54'  

Dump ship's entire track history